Time;durP1;ratioP1;P1;durP2;ratioP2;P2;SDS_P1;SDS_P2;PMS_P1;PMS_P2;Temp;Humidity;BMP_temperature;BMP_pressure;BME280_temperature;BME280_humidity;BME280_pressure;Samples;Min_cycle;Max_cycle;Signal;HPM_P1;HPM_P2
2022/02/15 00:00:08;;;;;;;0.70;0.63;;;7.90;99.90;;;;;;6329942;22;20177;-94
2022/02/15 00:02:42;;;;;;;1.03;0.77;;;7.80;99.90;;;;;;6303416;22;20170;-93
2022/02/15 00:05:14;;;;;;;1.40;0.90;;;7.80;99.90;;;;;;6328088;22;20201;-93
2022/02/15 00:07:45;;;;;;;1.30;1.00;;;7.80;99.90;;;;;;6327508;22;20243;-93
2022/02/15 00:10:19;;;;;;;2.50;1.17;;;7.80;99.90;;;;;;6332554;22;20221;-93
2022/02/15 00:13:00;;;;;;;1.40;1.30;;;7.80;99.90;;;;;;6331013;22;20170;-94
2022/02/15 00:15:31;;;;;;;1.40;1.20;;;7.80;99.90;;;;;;6328288;22;20173;-94
2022/02/15 00:18:03;;;;;;;1.20;1.10;;;7.80;99.90;;;;;;6328071;22;20182;-94
2022/02/15 00:20:34;;;;;;;2.37;1.23;;;7.80;99.90;;;;;;6327736;22;20170;-92
2022/02/15 00:23:06;;;;;;;1.90;1.20;;;7.80;99.90;;;;;;6325750;22;20236;-93
2022/02/15 00:25:36;;;;;;;2.23;1.20;;;7.90;99.90;;;;;;6326405;22;20198;-93
2022/02/15 00:28:09;;;;;;;2.53;1.20;;;7.90;99.90;;;;;;6327169;22;20188;-92
2022/02/15 00:30:41;;;;;;;2.03;1.20;;;7.80;99.90;;;;;;6326662;22;20178;-92
2022/02/15 00:33:13;;;;;;;1.60;1.37;;;7.90;99.90;;;;;;6329010;22;20189;-92
2022/02/15 00:35:45;;;;;;;1.23;1.13;;;8.00;99.90;;;;;;6302851;22;20166;-91
2022/02/15 00:38:17;;;;;;;2.17;1.13;;;8.10;99.90;;;;;;6323620;22;20178;-93
2022/02/15 00:40:48;;;;;;;1.77;1.30;;;8.00;99.90;;;;;;6301840;22;20174;-93
2022/02/15 00:43:23;;;;;;;2.73;1.10;;;8.00;99.90;;;;;;6330410;22;20174;-94
2022/02/15 00:45:55;;;;;;;1.53;1.10;;;8.00;99.90;;;;;;6333122;22;20196;-93
2022/02/15 00:48:27;;;;;;;1.00;0.97;;;8.00;99.90;;;;;;6335376;22;20191;-93
2022/02/15 00:50:59;;;;;;;1.47;1.37;;;8.00;99.90;;;;;;6335062;22;20495;-93
2022/02/15 00:53:30;;;;;;;1.70;1.60;;;8.00;99.90;;;;;;6332373;22;20196;-93
2022/02/15 00:56:01;;;;;;;2.27;1.83;;;7.90;99.90;;;;;;6332305;22;20158;-94
2022/02/15 00:58:35;;;;;;;2.00;1.77;;;7.80;99.90;;;;;;6303776;22;20262;-93
2022/02/15 01:01:08;;;;;;;2.70;1.80;;;7.70;99.90;;;;;;6276765;22;20162;-93
2022/02/15 01:03:39;;;;;;;1.70;1.60;;;7.60;99.90;;;;;;6330468;22;20228;-93
2022/02/15 01:06:10;;;;;;;3.63;2.10;;;7.60;99.90;;;;;;6328545;22;20202;-92
2022/02/15 01:08:42;;;;;;;2.30;2.10;;;7.60;99.90;;;;;;6329488;22;20174;-94
2022/02/15 01:11:15;;;;;;;2.97;1.77;;;7.60;99.90;;;;;;6327523;22;20186;-92
2022/02/15 01:13:49;;;;;;;2.87;1.50;;;7.70;99.90;;;;;;6331840;22;20247;-93
2022/02/15 01:16:20;;;;;;;1.77;1.50;;;7.60;99.90;;;;;;6324737;22;20173;-94
2022/02/15 01:18:51;;;;;;;2.63;1.47;;;7.60;99.90;;;;;;6314613;22;20553;-94
2022/02/15 01:21:22;;;;;;;1.93;1.50;;;7.60;99.90;;;;;;6317379;22;20554;-93
2022/02/15 01:23:55;;;;;;;2.67;1.40;;;7.60;99.90;;;;;;6317086;22;20171;-94
2022/02/15 01:26:30;;;;;;;2.00;1.70;;;7.60;99.90;;;;;;6327385;22;20228;-94
2022/02/15 01:29:11;;;;;;;2.70;2.43;;;7.60;99.90;;;;;;6329293;22;20163;-93
2022/02/15 01:31:42;;;;;;;4.47;3.80;;;7.50;99.90;;;;;;6326745;22;20182;-93
2022/02/15 01:34:14;;;;;;;4.30;3.50;;;7.50;99.90;;;;;;6324542;22;20175;-92
2022/02/15 01:36:47;;;;;;;3.33;2.83;;;7.40;99.90;;;;;;6328175;22;20193;-94
2022/02/15 01:39:20;;;;;;;2.90;2.27;;;7.30;99.90;;;;;;6325520;22;20174;-93
2022/02/15 01:41:53;;;;;;;2.57;2.37;;;7.20;99.90;;;;;;6293960;22;20182;-94
2022/02/15 01:47:08;;;;;;;3.87;2.83;;;7.10;99.90;;;;;;6363717;22;20242;-93
2022/02/15 01:49:40;;;;;;;3.30;3.00;;;7.00;99.90;;;;;;6352898;22;20161;-93
2022/02/15 01:52:11;;;;;;;3.73;3.43;;;7.00;99.90;;;;;;6338309;22;20177;-94
2022/02/15 01:54:42;;;;;;;3.47;3.03;;;7.10;99.90;;;;;;6362027;22;20162;-94
2022/02/15 01:57:14;;;;;;;4.07;3.20;;;7.00;99.90;;;;;;6363189;22;20188;-92
2022/02/15 01:59:46;;;;;;;5.10;3.03;;;7.00;99.90;;;;;;6360727;22;20316;-93
2022/02/15 02:02:20;;;;;;;4.30;3.87;;;6.90;99.90;;;;;;6363440;22;20262;-92
2022/02/15 02:07:41;;;;;;;3.53;3.23;;;7.00;99.90;;;;;;6360055;22;20189;-93
2022/02/15 02:10:14;;;;;;;4.33;3.33;;;7.00;99.90;;;;;;6358381;22;20184;-91
2022/02/15 02:12:46;;;;;;;3.10;2.80;;;7.00;99.90;;;;;;6363036;22;20177;-93
2022/02/15 02:15:19;;;;;;;3.53;3.23;;;7.00;99.90;;;;;;6355952;22;20265;-95
2022/02/15 02:17:53;;;;;;;4.53;3.30;;;7.10;99.90;;;;;;6335264;22;20210;-93
2022/02/15 02:20:25;;;;;;;3.87;3.47;;;7.10;99.90;;;;;;6321095;22;20209;-92
2022/02/15 02:23:03;;;;;;;3.60;2.63;;;7.30;99.90;;;;;;6302266;22;20212;-94
2022/02/15 02:25:39;;;;;;;2.40;2.20;;;7.30;99.90;;;;;;6297333;22;20205;-93
2022/02/15 02:28:12;;;;;;;6.27;2.40;;;7.30;99.90;;;;;;6327071;22;20174;-91
2022/02/15 02:30:43;;;;;;;5.03;3.00;;;7.20;99.90;;;;;;6331403;22;20166;-93
2022/02/15 02:46:39;;;;;;;3.43;2.87;;;7.00;99.90;;;;;;6294479;22;20216;-89
2022/02/15 03:07:55;;;;;;;4.37;3.50;;;6.70;99.90;;;;;;6336439;22;20225;-89
2022/02/15 03:10:27;;;;;;;3.90;3.57;;;6.60;99.90;;;;;;6316307;22;20262;-92
2022/02/15 03:13:01;;;;;;;6.77;3.40;;;6.50;99.90;;;;;;6301850;22;20201;-88
2022/02/15 03:15:34;;;;;;;4.87;3.50;;;6.40;99.90;;;;;;6298830;22;20224;-90
2022/02/15 03:28:53;;;;;;;9.53;7.30;;;6.00;99.90;;;;;;6302505;22;20347;-90
2022/02/15 03:31:27;;;;;;;7.67;5.83;;;5.90;99.90;;;;;;6334070;22;20176;-91
2022/02/15 03:47:28;;;;;;;5.10;3.90;;;5.60;99.90;;;;;;6313329;22;20205;-90
2022/02/15 03:50:43;;;;;;;5.70;4.20;;;5.50;99.90;;;;;;6313857;22;20226;-91
2022/02/15 04:17:10;;;;;;;4.77;3.90;;;5.40;99.90;;;;;;6329101;22;20271;-91
2022/02/15 04:19:42;;;;;;;4.37;3.97;;;5.50;99.90;;;;;;6328394;22;20206;-91
2022/02/15 04:22:14;;;;;;;7.00;4.20;;;5.60;99.90;;;;;;6327129;22;20175;-91
2022/02/15 04:24:45;;;;;;;5.90;4.73;;;5.60;99.90;;;;;;6327302;22;20175;-91
2022/02/15 04:27:16;;;;;;;7.43;5.37;;;5.60;99.90;;;;;;6328457;22;20249;-90
2022/02/15 04:29:47;;;;;;;8.57;7.67;;;5.70;99.90;;;;;;6327710;22;20175;-91
2022/02/15 04:32:21;;;;;;;11.63;10.43;;;5.80;99.90;;;;;;6326943;22;20174;-90
2022/02/15 04:34:52;;;;;;;8.37;7.53;;;5.80;99.90;;;;;;6295419;22;20213;-91
2022/02/15 04:37:26;;;;;;;7.67;6.90;;;5.90;99.90;;;;;;6300333;22;20178;-88
2022/02/15 04:39:58;;;;;;;7.87;4.67;;;5.90;99.90;;;;;;6289437;22;20225;-89
2022/02/15 04:42:32;;;;;;;4.40;4.00;;;5.90;99.90;;;;;;6303447;22;20159;-90
2022/02/15 04:45:04;;;;;;;6.07;4.60;;;5.90;99.90;;;;;;6304302;22;20154;-90
2022/02/15 04:47:37;;;;;;;6.00;4.70;;;6.00;99.90;;;;;;6301508;22;20199;-90
2022/02/15 04:50:09;;;;;;;5.10;4.60;;;6.10;99.90;;;;;;6298852;22;20201;-90
2022/02/15 04:52:41;;;;;;;6.63;5.43;;;6.10;99.90;;;;;;6304519;22;20174;-90
2022/02/15 04:55:17;;;;;;;5.93;5.33;;;6.10;99.90;;;;;;6303211;22;20202;-90
2022/02/15 04:57:54;;;;;;;6.77;4.57;;;6.10;99.90;;;;;;6302448;22;20190;-91
2022/02/15 05:00:25;;;;;;;4.37;3.97;;;6.10;99.90;;;;;;6304382;22;20226;-89
2022/02/15 05:03:00;;;;;;;4.87;3.50;;;6.00;99.90;;;;;;6303257;22;20167;-90
2022/02/15 05:05:31;;;;;;;5.77;3.10;;;6.10;99.90;;;;;;6297566;22;20205;-90
2022/02/15 05:08:02;;;;;;;4.37;3.50;;;6.20;99.90;;;;;;6298836;22;20195;-90
2022/02/15 05:10:35;;;;;;;5.67;3.13;;;6.20;99.90;;;;;;6296885;22;20198;-90
2022/02/15 05:13:09;;;;;;;4.17;3.20;;;6.20;99.90;;;;;;6298377;22;20159;-91
2022/02/15 05:15:41;;;;;;;5.63;3.23;;;6.20;99.90;;;;;;6298581;22;20175;-90
2022/02/15 05:18:14;;;;;;;5.30;3.23;;;6.10;99.90;;;;;;6302319;22;20163;-89
2022/02/15 05:20:46;;;;;;;7.70;4.00;;;6.10;99.90;;;;;;6304454;22;20157;-90
2022/02/15 05:23:17;;;;;;;5.30;3.47;;;6.10;99.90;;;;;;6301715;22;20171;-90
2022/02/15 05:25:48;;;;;;;4.90;3.30;;;6.20;99.90;;;;;;6301057;22;20206;-90
2022/02/15 05:28:19;;;;;;;4.73;3.27;;;6.20;99.90;;;;;;6303500;22;20207;-91
2022/02/15 05:30:53;;;;;;;4.33;3.33;;;6.20;99.90;;;;;;6301042;22;20165;-91
2022/02/15 05:33:26;;;;;;;3.77;3.20;;;6.30;99.90;;;;;;6297098;22;20179;-91
2022/02/15 05:35:58;;;;;;;6.67;4.27;;;6.20;99.90;;;;;;6297109;22;20181;-91
2022/02/15 05:38:33;;;;;;;6.50;4.60;;;6.30;99.90;;;;;;6298687;22;20174;-90
2022/02/15 05:41:07;;;;;;;14.13;5.27;;;6.30;99.90;;;;;;6329030;22;20197;-90
2022/02/15 05:43:39;;;;;;;7.13;4.70;;;6.30;99.90;;;;;;6328934;22;20184;-90
2022/02/15 05:46:10;;;;;;;8.47;4.70;;;6.40;99.90;;;;;;6332076;22;20158;-94
2022/02/15 05:48:44;;;;;;;8.77;4.97;;;6.40;99.90;;;;;;6324317;22;20216;-90
2022/02/15 05:51:14;;;;;;;7.40;4.53;;;6.40;99.90;;;;;;6312950;22;20208;-91
2022/02/15 05:53:46;;;;;;;7.93;4.83;;;6.40;99.90;;;;;;6319240;22;20182;-95
2022/02/15 05:56:18;;;;;;;7.10;4.30;;;6.40;99.90;;;;;;6319158;22;20178;-93
2022/02/15 05:58:49;;;;;;;7.20;4.67;;;6.40;99.90;;;;;;6318218;22;20174;-94
2022/02/15 06:01:20;;;;;;;6.33;4.10;;;6.40;99.90;;;;;;6316965;22;20181;-94
2022/02/15 06:06:41;;;;;;;5.13;4.10;;;6.40;99.90;;;;;;6313175;22;20193;-96
2022/02/15 06:09:13;;;;;;;7.20;4.90;;;6.50;99.90;;;;;;6315283;22;20235;-94
2022/02/15 06:11:44;;;;;;;7.43;4.50;;;6.40;99.90;;;;;;6315237;22;20195;-92
2022/02/15 06:14:16;;;;;;;7.20;4.50;;;6.40;99.90;;;;;;6315232;22;20171;-92
2022/02/15 06:16:47;;;;;;;7.23;4.77;;;6.40;99.90;;;;;;6286804;22;20166;-93
2022/02/15 06:19:20;;;;;;;7.03;4.73;;;6.40;99.90;;;;;;6314892;22;20174;-93
2022/02/15 06:21:52;;;;;;;8.10;5.00;;;6.50;99.90;;;;;;6320370;22;20166;-94
2022/02/15 06:24:23;;;;;;;7.67;4.50;;;6.50;99.90;;;;;;6326553;22;20181;-95
2022/02/15 06:27:04;;;;;;;6.27;4.70;;;6.50;99.90;;;;;;6312462;22;20194;-93
2022/02/15 06:29:36;;;;;;;6.57;5.07;;;6.50;99.90;;;;;;6313403;22;20175;-94
2022/02/15 06:32:07;;;;;;;6.47;5.33;;;6.50;99.90;;;;;;6314445;22;20188;-94
2022/02/15 06:34:40;;;;;;;6.20;4.83;;;6.50;99.90;;;;;;6316488;22;20177;-92
2022/02/15 06:37:15;;;;;;;8.60;5.33;;;6.50;99.90;;;;;;6317056;22;20182;-93
2022/02/15 06:39:47;;;;;;;6.80;4.20;;;6.50;99.90;;;;;;6314369;22;20528;-93
2022/02/15 06:42:18;;;;;;;5.57;4.97;;;6.60;99.90;;;;;;6314529;22;20167;-94
2022/02/15 06:44:50;;;;;;;7.73;5.10;;;6.60;99.90;;;;;;6315537;22;20761;-92
2022/02/15 06:47:21;;;;;;;6.37;4.50;;;6.60;99.90;;;;;;6312170;22;20648;-92
2022/02/15 06:49:54;;;;;;;6.43;4.50;;;6.60;99.90;;;;;;6312476;22;20166;-95
2022/02/15 06:52:25;;;;;;;6.43;4.70;;;6.60;99.90;;;;;;6314256;22;20166;-91
2022/02/15 06:54:56;;;;;;;6.47;4.90;;;6.60;99.90;;;;;;6312845;22;20188;-93
2022/02/15 06:57:27;;;;;;;8.87;5.17;;;6.50;99.90;;;;;;6312593;22;20231;-94
2022/02/15 06:59:58;;;;;;;7.73;4.70;;;6.50;99.90;;;;;;6317517;22;20193;-93
2022/02/15 07:02:29;;;;;;;9.90;5.17;;;6.50;99.90;;;;;;6316467;22;20166;-94
2022/02/15 07:05:03;;;;;;;8.07;5.00;;;6.50;99.90;;;;;;6315484;22;20212;-94
2022/02/15 07:07:36;;;;;;;5.67;4.57;;;6.50;99.90;;;;;;6319123;22;20186;-94
2022/02/15 07:10:08;;;;;;;7.93;4.60;;;6.50;99.90;;;;;;6317554;22;20605;-93
2022/02/15 07:12:41;;;;;;;5.57;5.00;;;6.60;99.90;;;;;;6320378;22;20169;-92
2022/02/15 07:15:13;;;;;;;6.27;5.10;;;6.50;99.90;;;;;;6316465;22;20260;-95
2022/02/15 07:17:44;;;;;;;6.00;4.80;;;6.50;99.90;;;;;;6319091;22;20186;-94
2022/02/15 07:20:18;;;;;;;6.03;4.93;;;6.50;99.90;;;;;;6317170;22;20166;-93
2022/02/15 07:22:55;;;;;;;10.03;5.00;;;6.60;99.90;;;;;;6292420;22;20170;-94
2022/02/15 07:25:26;;;;;;;6.27;3.87;;;6.60;99.90;;;;;;6289956;22;20349;-93
2022/02/15 07:27:57;;;;;;;7.77;4.67;;;6.60;99.90;;;;;;6318012;22;20199;-93
2022/02/15 07:30:28;;;;;;;6.33;4.37;;;6.60;99.90;;;;;;6315387;22;20174;-93
2022/02/15 07:33:00;;;;;;;6.63;4.80;;;6.60;99.90;;;;;;6318844;22;20163;-94
2022/02/15 07:35:34;;;;;;;6.83;4.77;;;6.60;99.90;;;;;;6323063;22;20192;-94
2022/02/15 07:38:05;;;;;;;6.23;5.20;;;6.60;99.90;;;;;;6301368;22;20181;-93
2022/02/15 07:40:36;;;;;;;5.70;4.90;;;6.60;99.90;;;;;;6335424;22;20194;-93
2022/02/15 07:43:06;;;;;;;8.57;5.27;;;6.60;99.90;;;;;;6334785;22;20178;-92
2022/02/15 07:45:40;;;;;;;7.97;5.23;;;6.60;99.90;;;;;;6328697;22;20193;-93
2022/02/15 07:48:11;;;;;;;6.93;4.77;;;6.60;99.90;;;;;;6323147;22;20216;-94
2022/02/15 07:50:44;;;;;;;7.20;4.70;;;6.60;99.90;;;;;;6318315;22;20167;-93
2022/02/15 07:53:16;;;;;;;9.73;5.13;;;6.60;99.90;;;;;;6316462;22;20561;-93
2022/02/15 07:55:48;;;;;;;5.67;5.10;;;6.60;99.90;;;;;;6315603;22;20250;-94
2022/02/15 07:58:19;;;;;;;7.63;5.33;;;6.60;99.90;;;;;;6315112;22;20180;-94
2022/02/15 08:00:50;;;;;;;7.10;5.13;;;6.60;99.90;;;;;;6316042;22;20231;-94
2022/02/15 08:03:22;;;;;;;7.77;5.57;;;6.60;99.90;;;;;;6315546;22;20621;-94
2022/02/15 08:05:55;;;;;;;6.23;5.23;;;6.60;99.90;;;;;;6314779;22;20242;-94
2022/02/15 08:08:26;;;;;;;6.20;4.87;;;6.70;99.90;;;;;;6312786;22;20198;-93
2022/02/15 08:10:57;;;;;;;5.97;4.53;;;6.70;99.90;;;;;;6287726;22;20167;-94
2022/02/15 08:13:34;;;;;;;7.83;5.73;;;6.70;99.90;;;;;;6314650;22;20190;-94
2022/02/15 08:16:06;;;;;;;9.37;5.97;;;6.60;99.90;;;;;;6314224;22;20269;-94
2022/02/15 08:18:41;;;;;;;7.33;5.30;;;6.60;99.90;;;;;;6315716;22;20154;-94
2022/02/15 08:21:14;;;;;;;8.77;6.20;;;6.60;99.90;;;;;;6316879;22;20181;-93
2022/02/15 08:24:04;;;;;;;10.90;6.47;;;6.50;99.90;;;;;;6314098;22;20233;-92
2022/02/15 08:26:36;;;;;;;8.37;6.50;;;6.50;99.90;;;;;;6289638;22;20204;-93
2022/02/15 08:29:06;;;;;;;8.60;6.57;;;6.60;99.90;;;;;;6314290;22;20213;-93
2022/02/15 08:31:38;;;;;;;9.03;7.03;;;6.40;99.90;;;;;;6319983;22;20177;-93
2022/02/15 08:34:09;;;;;;;9.83;7.17;;;6.40;99.90;;;;;;6318721;22;20258;-93
2022/02/15 08:36:42;;;;;;;9.27;6.90;;;6.40;99.90;;;;;;6316943;22;20256;-94
2022/02/15 08:39:15;;;;;;;9.43;6.60;;;6.50;99.90;;;;;;6288138;22;20178;-94
2022/02/15 08:41:46;;;;;;;11.40;7.73;;;6.50;99.90;;;;;;6316823;22;20303;-93
2022/02/15 08:44:17;;;;;;;7.13;6.43;;;6.50;99.90;;;;;;6316519;22;20163;-93
2022/02/15 08:46:52;;;;;;;8.77;6.63;;;6.50;99.90;;;;;;6287535;22;20234;-93
2022/02/15 08:49:23;;;;;;;9.43;7.20;;;6.50;99.90;;;;;;6315337;22;20250;-93
2022/02/15 08:51:55;;;;;;;8.93;6.73;;;6.50;99.90;;;;;;6288030;22;20634;-94
2022/02/15 08:54:27;;;;;;;9.53;6.93;;;6.60;99.90;;;;;;6320036;22;20167;-92
2022/02/15 08:56:58;;;;;;;9.97;7.73;;;6.60;99.90;;;;;;6269697;22;20204;-94
2022/02/15 08:59:29;;;;;;;11.63;8.87;;;6.50;99.90;;;;;;6329797;22;20193;-95
2022/02/15 09:02:00;;;;;;;13.77;8.97;;;6.50;99.90;;;;;;6326663;22;20166;-93
2022/02/15 09:04:32;;;;;;;12.03;9.47;;;6.40;99.90;;;;;;6328239;22;20226;-93
2022/02/15 09:07:06;;;;;;;13.57;9.20;;;6.50;99.90;;;;;;6302266;22;20246;-94
2022/02/15 09:09:37;;;;;;;10.17;8.70;;;6.50;99.90;;;;;;6325292;22;20198;-94
2022/02/15 09:12:10;;;;;;;10.77;8.47;;;6.50;99.90;;;;;;6326301;22;20166;-94
2022/02/15 09:14:41;;;;;;;9.93;7.60;;;6.50;99.90;;;;;;6297102;22;20186;-94
2022/02/15 09:17:12;;;;;;;12.73;8.13;;;6.60;99.90;;;;;;6320292;22;20177;-94
2022/02/15 09:19:43;;;;;;;9.87;7.57;;;6.60;99.90;;;;;;6329111;22;20177;-92
2022/02/15 09:22:17;;;;;;;8.90;7.53;;;6.60;99.90;;;;;;6331509;22;20167;-93
2022/02/15 09:24:48;;;;;;;9.87;7.77;;;6.60;99.90;;;;;;6333465;22;20170;-91
2022/02/15 09:27:20;;;;;;;9.90;8.50;;;6.50;99.90;;;;;;6333962;22;20173;-92
2022/02/15 09:29:52;;;;;;;12.87;9.00;;;6.50;99.90;;;;;;6328295;22;20202;-94
2022/02/15 09:32:23;;;;;;;11.83;9.40;;;6.60;99.90;;;;;;6322945;22;20178;-93
2022/02/15 09:34:55;;;;;;;10.90;8.47;;;6.60;99.90;;;;;;6324028;22;20637;-93
2022/02/15 09:37:29;;;;;;;9.87;8.43;;;6.60;99.90;;;;;;6324560;22;20179;-93
2022/02/15 09:40:00;;;;;;;15.60;10.67;;;6.60;99.90;;;;;;6325737;22;20193;-94
2022/02/15 09:42:35;;;;;;;12.87;10.47;;;6.50;99.90;;;;;;6288428;22;20176;-93
2022/02/15 09:45:07;;;;;;;18.00;10.73;;;6.50;99.90;;;;;;6317395;22;20163;-91
2022/02/15 09:47:41;;;;;;;15.67;11.10;;;6.50;99.90;;;;;;6315553;22;20228;-93
2022/02/15 09:50:12;;;;;;;17.13;10.80;;;6.60;99.90;;;;;;6317404;22;20197;-93
2022/02/15 09:52:46;;;;;;;15.43;11.73;;;6.50;99.90;;;;;;6334448;22;20166;-94
2022/02/15 09:55:17;;;;;;;15.77;11.83;;;6.40;99.90;;;;;;6334335;22;20166;-92
2022/02/15 09:57:48;;;;;;;17.67;11.93;;;6.40;99.90;;;;;;6300105;22;20176;-94
2022/02/15 10:00:21;;;;;;;19.63;12.77;;;6.40;99.90;;;;;;6318577;22;20205;-94
2022/02/15 10:02:53;;;;;;;19.73;12.20;;;6.40;99.90;;;;;;6315283;22;20173;-93
2022/02/15 10:05:24;;;;;;;18.57;11.80;;;6.40;99.90;;;;;;6314761;22;20166;-93
2022/02/15 10:07:57;;;;;;;14.70;10.07;;;6.50;99.90;;;;;;6317340;22;20162;-92
2022/02/15 10:10:32;;;;;;;14.27;10.97;;;6.50;99.90;;;;;;6323048;22;20205;-93
2022/02/15 10:13:06;;;;;;;16.60;10.27;;;6.50;99.90;;;;;;6290022;22;20174;-94
2022/02/15 10:15:39;;;;;;;15.63;10.57;;;6.50;99.90;;;;;;6312850;22;20173;-93
2022/02/15 10:18:35;;;;;;;15.70;10.77;;;6.50;99.90;;;;;;6314689;22;20178;-93
2022/02/15 10:21:07;;;;;;;20.27;10.37;;;6.50;99.90;;;;;;6292972;22;20174;-94
2022/02/15 10:23:40;;;;;;;12.83;10.03;;;6.60;99.90;;;;;;6314541;22;20166;-92
2022/02/15 10:26:13;;;;;;;14.27;10.80;;;6.50;99.90;;;;;;6314278;22;20577;-93
2022/02/15 10:28:44;;;;;;;16.97;11.37;;;6.50;99.90;;;;;;6318360;22;20500;-94
2022/02/15 10:31:16;;;;;;;15.40;12.00;;;6.40;99.90;;;;;;6313650;22;20163;-93
2022/02/15 10:33:49;;;;;;;15.50;11.40;;;6.40;99.90;;;;;;6313095;22;20176;-94
2022/02/15 10:36:21;;;;;;;14.90;11.23;;;6.40;99.90;;;;;;6313232;22;20220;-95
2022/02/15 10:38:57;;;;;;;13.70;10.73;;;6.40;99.90;;;;;;6318142;22;20604;-92
2022/02/15 10:41:34;;;;;;;13.67;10.73;;;6.50;99.90;;;;;;6311910;22;20169;-93
2022/02/15 10:44:07;;;;;;;13.60;10.73;;;6.50;99.90;;;;;;6313077;22;20189;-90
2022/02/15 10:46:40;;;;;;;11.87;9.67;;;6.50;99.90;;;;;;6312577;22;20170;-94
2022/02/15 10:49:11;;;;;;;13.93;10.70;;;6.50;99.90;;;;;;6312784;22;20182;-93
2022/02/15 10:51:42;;;;;;;17.20;11.50;;;6.50;99.90;;;;;;6312831;22;20197;-92
2022/02/15 10:54:16;;;;;;;18.37;11.30;;;6.50;99.90;;;;;;6313605;22;20481;-92
2022/02/15 10:56:49;;;;;;;16.57;11.93;;;6.40;99.90;;;;;;6312808;22;20174;-93
2022/02/15 10:59:22;;;;;;;15.63;11.37;;;6.40;99.90;;;;;;6313843;22;20170;-93
2022/02/15 11:01:53;;;;;;;16.50;12.40;;;6.40;99.90;;;;;;6314149;22;20177;-93
2022/02/15 11:04:26;;;;;;;20.70;13.40;;;6.30;99.90;;;;;;6314129;22;20158;-93
2022/02/15 11:06:57;;;;;;;18.40;13.10;;;6.20;99.90;;;;;;6314930;22;20561;-94
2022/02/15 11:09:38;;;;;;;20.77;13.80;;;6.20;99.90;;;;;;6315212;22;20209;-93
2022/02/15 11:12:21;;;;;;;22.07;13.93;;;6.20;99.90;;;;;;6314851;22;20169;-92
2022/02/15 11:15:01;;;;;;;21.07;13.43;;;6.20;99.90;;;;;;6312296;22;20181;-94
2022/02/15 11:17:33;;;;;;;19.67;13.87;;;6.20;99.90;;;;;;6314767;22;20166;-92
2022/02/15 11:20:08;;;;;;;23.73;13.83;;;6.20;99.90;;;;;;6315887;22;20178;-93
2022/02/15 11:22:48;;;;;;;20.57;13.70;;;6.20;99.90;;;;;;6313642;22;20166;-93
2022/02/15 11:25:30;;;;;;;19.57;13.10;;;6.20;99.90;;;;;;6313736;22;20166;-93
2022/02/15 11:28:11;;;;;;;20.70;13.07;;;6.20;99.90;;;;;;6313319;22;20201;-93
2022/02/15 11:30:56;;;;;;;19.23;13.63;;;6.20;99.90;;;;;;6313954;22;20204;-93
2022/02/15 11:33:30;;;;;;;19.90;14.37;;;6.20;99.90;;;;;;6312562;22;20213;-94
2022/02/15 11:36:08;;;;;;;24.50;14.60;;;6.20;99.90;;;;;;6313773;22;20173;-92
2022/02/15 11:38:39;;;;;;;22.23;13.83;;;6.10;99.90;;;;;;6313283;22;20178;-93
2022/02/15 11:41:15;;;;;;;21.80;13.97;;;6.10;99.90;;;;;;6314744;22;20167;-93
2022/02/15 11:43:56;;;;;;;21.23;14.40;;;6.10;99.90;;;;;;6313508;22;20171;-93
2022/02/15 11:46:31;;;;;;;21.80;13.90;;;6.20;99.90;;;;;;6318916;22;20707;-94
2022/02/15 11:49:23;;;;;;;19.67;13.20;;;6.20;99.90;;;;;;6289852;22;20154;-93
2022/02/15 11:51:54;;;;;;;20.47;13.57;;;6.20;99.90;;;;;;6291913;22;20167;-94
2022/02/15 11:54:26;;;;;;;19.43;13.17;;;6.30;99.90;;;;;;6321635;22;20179;-93
2022/02/15 11:56:59;;;;;;;16.43;12.03;;;6.30;99.90;;;;;;6309134;22;20184;-94
2022/02/15 11:59:30;;;;;;;18.57;11.70;;;6.30;99.90;;;;;;6333034;22;20174;-94
2022/02/15 12:02:03;;;;;;;18.50;12.97;;;6.20;99.90;;;;;;6335341;22;20167;-94
2022/02/15 12:04:35;;;;;;;19.30;13.33;;;6.20;99.90;;;;;;6335985;22;20166;-92
2022/02/15 12:07:07;;;;;;;17.37;11.57;;;6.20;99.90;;;;;;6335232;22;20209;-93
2022/02/15 12:09:39;;;;;;;15.60;11.43;;;6.30;99.90;;;;;;6335279;22;20162;-93
2022/02/15 12:12:17;;;;;;;14.40;12.10;;;6.20;99.90;;;;;;6302483;22;20171;-93
2022/02/15 12:14:56;;;;;;;16.27;11.73;;;6.30;99.90;;;;;;6328483;22;20166;-94
2022/02/15 12:17:28;;;;;;;12.73;9.53;;;6.30;99.90;;;;;;6319740;22;20178;-93
2022/02/15 12:20:10;;;;;;;14.17;10.63;;;6.40;99.90;;;;;;6299835;22;20163;-94
2022/02/15 12:22:44;;;;;;;16.23;10.57;;;6.40;99.90;;;;;;6320737;22;20162;-94
2022/02/15 12:25:16;;;;;;;13.63;10.53;;;6.40;99.90;;;;;;6320074;22;20666;-94
2022/02/15 12:27:48;;;;;;;15.70;10.87;;;6.40;99.90;;;;;;6322168;22;20177;-94
2022/02/15 12:30:22;;;;;;;15.00;11.37;;;6.40;99.90;;;;;;6296144;22;20716;-94
2022/02/15 12:32:53;;;;;;;17.63;11.23;;;6.30;99.90;;;;;;6319014;22;20174;-94
2022/02/15 12:35:28;;;;;;;14.90;11.17;;;6.30;99.90;;;;;;6319039;22;20178;-94
2022/02/15 12:38:00;;;;;;;15.27;11.13;;;6.30;99.90;;;;;;6318155;22;20223;-93
2022/02/15 12:40:32;;;;;;;14.57;10.57;;;6.30;99.90;;;;;;6317934;22;20225;-93
2022/02/15 12:43:05;;;;;;;14.17;11.00;;;6.30;99.90;;;;;;6318042;22;20240;-93
2022/02/15 12:45:45;;;;;;;14.60;11.23;;;6.20;99.90;;;;;;6315865;22;20174;-91
2022/02/15 12:48:15;;;;;;;15.83;11.77;;;6.20;99.90;;;;;;6314782;22;20186;-93
2022/02/15 12:50:48;;;;;;;16.77;11.70;;;6.30;99.90;;;;;;6317517;22;20190;-93
2022/02/15 12:53:19;;;;;;;15.80;11.97;;;6.30;99.90;;;;;;6289235;22;20174;-93
2022/02/15 12:55:52;;;;;;;14.43;11.53;;;6.30;99.90;;;;;;6317312;22;20175;-93
2022/02/15 12:58:25;;;;;;;15.10;11.60;;;6.30;99.90;;;;;;6320092;22;20185;-94
2022/02/15 13:01:00;;;;;;;15.33;11.10;;;6.40;99.90;;;;;;6324033;22;20166;-94
2022/02/15 13:03:35;;;;;;;13.87;10.57;;;6.30;99.90;;;;;;6321032;22;20198;-93
2022/02/15 13:06:11;;;;;;;14.83;10.57;;;6.30;99.90;;;;;;6320826;22;20162;-92
2022/02/15 13:08:46;;;;;;;14.90;9.87;;;6.20;99.90;;;;;;6319568;22;20166;-93
2022/02/15 13:11:17;;;;;;;14.90;10.00;;;6.30;99.90;;;;;;6321164;22;20274;-93
2022/02/15 13:13:50;;;;;;;13.43;9.50;;;6.30;99.90;;;;;;6321886;22;20169;-94
2022/02/15 13:16:21;;;;;;;16.70;11.03;;;6.30;99.90;;;;;;6319827;22;20201;-93
2022/02/15 13:18:55;;;;;;;13.93;9.33;;;6.30;99.90;;;;;;6318785;22;20189;-93
2022/02/15 13:21:28;;;;;;;11.80;8.60;;;6.30;99.90;;;;;;6320366;22;20181;-93
2022/02/15 13:24:02;;;;;;;13.37;9.53;;;6.30;99.90;;;;;;6324402;22;20175;-92
2022/02/15 13:26:34;;;;;;;14.10;8.63;;;6.30;99.90;;;;;;6322452;22;20171;-93
2022/02/15 13:29:09;;;;;;;15.73;9.63;;;6.30;99.90;;;;;;6317075;22;20561;-93
2022/02/15 13:31:44;;;;;;;13.93;9.43;;;6.20;99.90;;;;;;6316713;22;20289;-93
2022/02/15 13:34:15;;;;;;;15.47;9.50;;;6.20;99.90;;;;;;6315270;22;20181;-93
2022/02/15 13:36:49;;;;;;;12.03;9.33;;;6.10;99.90;;;;;;6314937;22;20201;-93
2022/02/15 13:39:20;;;;;;;13.27;9.67;;;6.10;99.90;;;;;;6316522;22;20186;-93
2022/02/15 13:41:53;;;;;;;12.53;8.77;;;6.10;99.90;;;;;;6315825;22;20166;-93
2022/02/15 13:44:26;;;;;;;12.07;8.77;;;6.10;99.90;;;;;;6315332;22;20181;-95
2022/02/15 13:46:58;;;;;;;12.13;8.47;;;6.00;99.90;;;;;;6316758;22;20213;-92
2022/02/15 13:49:30;;;;;;;13.80;8.50;;;6.10;99.90;;;;;;6290328;22;20175;-92
2022/02/15 13:52:01;;;;;;;12.37;9.00;;;6.00;99.90;;;;;;6313766;22;20209;-93
2022/02/15 13:54:33;;;;;;;13.77;9.63;;;6.00;99.90;;;;;;6316573;22;20169;-94
2022/02/15 13:57:06;;;;;;;16.10;10.17;;;6.10;99.90;;;;;;6315518;22;20181;-93
2022/02/15 13:59:39;;;;;;;16.20;10.20;;;6.00;99.90;;;;;;6319346;22;20249;-92
2022/02/15 14:02:10;;;;;;;16.30;9.83;;;6.00;99.90;;;;;;6314828;22;20181;-93
2022/02/15 14:04:42;;;;;;;15.87;10.03;;;6.00;99.90;;;;;;6315381;22;20553;-93
2022/02/15 14:07:12;;;;;;;15.13;10.10;;;6.00;99.90;;;;;;6314516;22;20198;-93
2022/02/15 14:09:44;;;;;;;14.87;10.43;;;6.00;99.90;;;;;;6316159;22;20170;-93
2022/02/15 14:12:18;;;;;;;13.03;9.37;;;6.00;99.90;;;;;;6315176;22;20195;-94
2022/02/15 14:14:52;;;;;;;15.87;9.70;;;6.00;99.90;;;;;;6315142;22;20608;-92
2022/02/15 14:17:41;;;;;;;16.53;10.23;;;6.00;99.90;;;;;;6315978;22;20178;-93
2022/02/15 14:20:15;;;;;;;15.80;8.53;;;6.00;99.90;;;;;;6333504;22;20159;-91
2022/02/15 14:22:47;;;;;;;14.93;9.10;;;6.00;99.90;;;;;;6333319;22;20762;-93
2022/02/15 14:25:19;;;;;;;18.13;10.07;;;6.10;99.90;;;;;;6326573;22;20196;-92
2022/02/15 14:27:55;;;;;;;18.07;9.10;;;6.00;99.90;;;;;;6329846;22;20185;-94
2022/02/15 14:30:27;;;;;;;16.17;9.93;;;6.00;99.90;;;;;;6331034;22;20175;-94
2022/02/15 14:33:00;;;;;;;13.23;8.87;;;6.10;99.90;;;;;;6317164;22;20291;-93
2022/02/15 14:35:32;;;;;;;15.40;9.67;;;6.10;99.90;;;;;;6315948;22;20228;-93
2022/02/15 14:38:04;;;;;;;14.60;9.90;;;6.00;99.90;;;;;;6317750;22;20169;-93
2022/02/15 14:40:36;;;;;;;14.00;9.67;;;6.00;99.90;;;;;;6314263;22;20194;-93
2022/02/15 14:43:08;;;;;;;16.53;10.20;;;6.00;99.90;;;;;;6315532;22;20174;-94
2022/02/15 14:45:41;;;;;;;15.90;9.67;;;6.00;99.90;;;;;;6319514;22;20170;-94
2022/02/15 14:48:12;;;;;;;13.77;8.87;;;6.20;99.90;;;;;;6286566;22;20224;-94